Pagrindinis puslapis
METAR-TAF:

METAR-TAF

Oro uostai :

Kokola, Suomija

platuma: 63-43N, ilguma: 023-09E, Aukštis: 25 m

Dabartinis oras

Ataskaita buvo paskelbta 37 minutes, ne 14:20 UTC
Vėjas 15 kt iš Pietų
Temperatūra 3°C
Drėgmė 93%
Slėgis 989 hPa
Matomumas 10 km arba daugiau
Apsiniaukę ne aukštis 700 ft
lietus

METAR: EFKK 211420Z AUTO 18015KT 9999 -RA OVC007 03/02 Q0989

Laikas: 16:57 (14:57 UTC)

Prognozė

Ataskaita buvo paskelbta 33 minutes, ne 14:24 UTC
Prognozė galioja nuo 21 metu 15 UTC su 21 metu 24 UTC
Vėjas 15 kt iš Pietų
Matomumas 10 km arba daugiau
Su prošvaistėmis ne aukštis 800 ft
lietus
Laikinai
nuo 21 metu 15 UTC su 21 metu 18 UTC
Matomumas: 2000 m
Su prošvaistėmis ne aukštis 200 ft
dulksna, lietus
Laikinai
nuo 21 metu 18 UTC su 21 metu 24 UTC
Su prošvaistėmis ne aukštis 1200 ft

TAF: EFKK 211424Z 2115/2124 19015KT 9999 -RA BKN008 TEMPO 2115/2118 2000 -DZRA BKN002 TEMPO 2118/2124 BKN012

Orai ataskaitas ir orų prognozės (METAR, TAF).

turimą stotys yra geltonos ir raudonos taškus žemėlapyje.

Perkelti pele per norėdami pamatyti stoties vardą.

Tada spustelėkite, norėdami matyti oro stebėjimo ir prognozės.

Norėdami pakeisti žemėlapį: spustelėkite ant žalios mygtukų su juodo kryžiaus žemyn,; žalią mygtuką su brūkšneliu, jei norite nutolinti; arba žalių rodyklių gretimoms žemėlapius.


METAR-TAF: